• Join FlightAware (Why Join?)
  • Login
  • US Flag GB Flag 
18:44 EDT


 

Airport Tracker/Info


-or-


 

Live Flight TrackerFlight Track Log ✈ GJS6221 ✈ 07-May-2013 ✈ KBTV - KLGA

Flight Track Log - Related Links

Times and Time Zones

All times are in EDT time to prevent confusion due to time zone crossing. See the GJS6221 flight status page for this flight to view local times or setup timezone preferences in your user account.

Time Position Orientation Groundspeed Altitude Reporting Facility
EDT Latitude Longitude Course Direction KTS MPH feet Rate Location/Type
14:30 44.2714 -73.1967 196° South 290 334 9,500  Level Boston Center
14:31 44.1878 -73.2306 196° South 301 346 11,600 2,340 Climbing Boston Center
14:32 44.0958 -73.2669 196° South 326 375 14,200 2,460 Climbing Boston Center
14:33 43.9159 -73.3603 196° South  Level FlightAware Approximate
14:33 44.0017 -73.3058 197° South 350 403 16,600  Level Boston Center
14:34 43.8240 -73.3953 195° South  Level FlightAware Approximate
14:34 43.9119 -73.3419 196° South 369 425 18,900  Level Boston Center
14:35 43.8136 -73.3839 197° South 369 425 21,100 1,920 Climbing Boston Center
14:36 43.7069 -73.4253 196° South 381 438 22,800 1,560 Climbing Boston Center
14:37 43.5858 -73.4747 196° South 397 457 24,300 1,440 Climbing Boston Center
14:38 43.4686 -73.5186 195° South 423 487 25,700 840 Climbing Boston Center
14:39 43.3494 -73.5650 196° South 438 504 26,000 120 Climbing Boston Center
14:40 43.2322 -73.6142 197° South 438 504 26,000 -300 Level Boston Center
14:41 43.1128 -73.6603 196° South 438 504 25,400 -840 Descending Boston Center
14:42 43.0125 -73.7008 196° South 438 504 24,400 -1,140 Descending Boston Center
14:43 42.9014 -73.7467 197° South 432 497 23,200 -1,200 Descending Boston Center
14:44 42.7864 -73.7925 196° South 426 490 22,000 -660 Descending Boston Center
14:45 42.6758 -73.7928 180° South 414 476 21,900  Descending Boston Center
14:46 42.5678 -73.7706 171° South 403 464 22,000  Climbing Boston Center
14:47 42.4533 -73.7458 171° South 403 464 21,900 -780 Descending Boston Center
14:48 42.3411 -73.7239 172° South 408 470 20,500 -1,560 Descending Boston Center
14:49 42.2164 -73.6986 171° South 408 470 18,800 -1,260 Descending Boston Center
14:50 42.1308 -73.7025 182° South 408 470 18,000 -420 Descending Boston Center
14:51 42.0094 -73.7339 191° South 391 450 18,000 -420 Level Boston Center
14:52 41.9175 -73.7569 191° South 385 443 17,200 -1,800 Descending Boston Center
14:53 41.8150 -73.7856 192° South 362 417 14,500 -2,580 Descending Boston Center
14:54 41.7314 -73.8058 190° South 349 402 12,100 -2,220 Descending Boston Center
14:55 41.6375 -73.8317 192° South 326 375 10,100 -1,680 Descending Boston Center
14:55 41.5833 -73.8500 194° South 282 325 9,300 -660 Descending New York TRACON
14:56 41.5167 -73.8667 191° South 271 312 9,000 -180 Descending New York TRACON
14:57 41.4333 -73.8667 180° South 280 322 9,000 -600 Level New York TRACON
14:58 41.3667 -73.8167 151° Southeast 267 307 7,800 -1,500 Descending New York TRACON
14:59 41.3167 -73.7667 143° Southeast 256 295 6,100 -1,680 Descending New York TRACON
15:00 41.2500 -73.7167 151° Southeast 253 291 4,500 -1,080 Descending New York TRACON
15:01 41.2000 -73.6667 143° Southeast 255 293 4,000 -300 Descending New York TRACON
15:02 41.1333 -73.6167 151° Southeast 255 293 4,000  Level New York TRACON
15:03 41.0667 -73.6333 191° South 269 310 4,000  Level New York TRACON
15:04 41.0167 -73.6833 217° Southwest 266 306 4,000  Level New York TRACON
15:05 40.9500 -73.7500 217° Southwest 268 308 4,000  Level New York TRACON
15:06 40.9167 -73.8333 242° Southwest 266 306 4,000  Level New York TRACON
15:07 40.8833 -73.9000 237° Southwest 266 306 4,000  Level New York TRACON
15:08 40.8167 -73.9667 217° Southwest 258 297 4,000  Level New York TRACON
15:09 40.7500 -74.0000 201° Southwest 258 297 4,000  Level New York TRACON
15:10 40.7000 -74.0500 217° Southwest 225 259 4,000 -480 Level New York TRACON
15:11 40.6500 -74.0667 194° South 197 227 3,100 -720 Descending New York TRACON
15:12 40.6333 -74.0167 114° Southeast 188 216 2,600 -720 Descending New York TRACON
15:13 40.6667 -73.9667 49° Northeast 189 217 1,700 -600 Descending New York TRACON
15:14 40.7167 -73.9333 27° Northeast 143 165 1,500 -240 Descending New York TRACON